Time;durP1;ratioP1;P1;durP2;ratioP2;P2;SDS_P1;SDS_P2;PMS_P1;PMS_P2;Temp;Humidity;BMP_temperature;BMP_pressure;BME280_temperature;BME280_humidity;BME280_pressure;Samples;Min_cycle;Max_cycle;Signal;HPM_P1;HPM_P2
2022/10/07 00:00:23;;;;;;;9.13;2.92;;;13.10;95.90;;;;;;5021194;28;20034;-66
2022/10/07 00:02:49;;;;;;;7.70;2.63;;;13.10;96.50;;;;;;5024857;28;20025;-64
2022/10/07 00:05:15;;;;;;;5.40;2.50;;;13.10;96.00;;;;;;5028386;28;20373;-65
2022/10/07 00:07:40;;;;;;;6.25;1.90;;;13.10;98.00;;;;;;5033609;28;20330;-65
2022/10/07 00:10:06;;;;;;;7.43;2.15;;;13.10;98.00;;;;;;5021577;28;20433;-65
2022/10/07 00:12:32;;;;;;;7.03;2.25;;;13.20;98.00;;;;;;5032498;28;20104;-64
2022/10/07 00:14:59;;;;;;;7.65;2.70;;;13.30;98.00;;;;;;5022458;28;20435;-65
2022/10/07 00:17:24;;;;;;;7.53;2.90;;;13.30;98.00;;;;;;5024491;28;20036;-65
2022/10/07 00:19:50;;;;;;;11.70;3.53;;;13.30;98.00;;;;;;5026573;28;20105;-65
2022/10/07 00:22:15;;;;;;;9.27;3.08;;;13.30;97.90;;;;;;5028814;28;20513;-65
2022/10/07 00:24:41;;;;;;;7.07;2.58;;;13.20;97.20;;;;;;5030152;28;20164;-65
2022/10/07 00:27:07;;;;;;;6.95;2.30;;;13.20;98.00;;;;;;5029868;28;20493;-64
2022/10/07 00:29:32;;;;;;;6.00;2.35;;;13.20;98.00;;;;;;5020278;28;20697;-64
2022/10/07 00:31:58;;;;;;;8.18;3.47;;;13.20;98.00;;;;;;5032119;28;20022;-63
2022/10/07 00:34:24;;;;;;;10.52;3.88;;;13.20;98.00;;;;;;5026029;28;20032;-63
2022/10/07 00:36:49;;;;;;;10.05;3.90;;;13.10;97.30;;;;;;5032213;28;20095;-66
2022/10/07 00:39:16;;;;;;;4.93;1.90;;;13.00;97.30;;;;;;5022760;28;20041;-65
2022/10/07 00:41:48;;;;;;;7.95;2.10;;;13.00;98.00;;;;;;5025561;28;20041;-65
2022/10/07 00:44:45;;;;;;;6.72;1.90;;;13.20;98.00;;;;;;5024056;28;20026;-65
2022/10/07 00:47:24;;;;;;;6.25;1.98;;;13.30;98.00;;;;;;5025792;28;20030;-65
2022/10/07 00:50:08;;;;;;;7.93;2.28;;;13.40;98.00;;;;;;5031742;28;20036;-65
2022/10/07 00:52:38;;;;;;;6.20;2.35;;;13.40;98.00;;;;;;5031033;28;20585;-64
2022/10/07 00:55:08;;;;;;;7.70;2.22;;;13.50;98.00;;;;;;5031413;28;20038;-65
2022/10/07 00:57:36;;;;;;;7.88;2.70;;;13.50;98.00;;;;;;5030771;28;20075;-65
2022/10/07 01:00:04;;;;;;;9.27;2.70;;;13.40;98.00;;;;;;5030097;28;20060;-65
2022/10/07 01:02:30;;;;;;;5.63;2.67;;;13.30;98.00;;;;;;5022662;28;20084;-65
2022/10/07 01:04:58;;;;;;;6.60;2.90;;;13.20;98.00;;;;;;5035472;28;20037;-63
2022/10/07 01:07:23;;;;;;;8.63;3.40;;;13.10;98.00;;;;;;5045983;28;20037;-63
2022/10/07 01:09:52;;;;;;;8.25;3.30;;;13.00;98.00;;;;;;5035446;28;20063;-63
2022/10/07 01:12:46;;;;;;;8.07;2.75;;;13.00;98.00;;;;;;5039481;28;20034;-65
2022/10/07 01:15:32;;;;;;;6.38;3.08;;;13.00;98.00;;;;;;5020025;28;20112;-64
2022/10/07 01:18:12;;;;;;;8.25;3.10;;;12.90;98.00;;;;;;5030211;28;20026;-65
2022/10/07 01:20:49;;;;;;;6.55;2.95;;;12.90;97.80;;;;;;5025927;28;20029;-65
2022/10/07 01:23:51;;;;;;;7.25;2.83;;;12.90;98.00;;;;;;5028064;28;20048;-64
2022/10/07 01:26:38;;;;;;;5.55;2.70;;;12.90;97.90;;;;;;5031266;28;20091;-66
2022/10/07 01:29:42;;;;;;;9.07;3.08;;;12.80;97.60;;;;;;5021093;28;20057;-65
2022/10/07 01:32:16;;;;;;;7.63;2.80;;;12.80;97.50;;;;;;5034761;28;20629;-66
2022/10/07 01:34:44;;;;;;;11.52;4.00;;;12.80;97.50;;;;;;5027361;28;20110;-65
2022/10/07 01:37:14;;;;;;;8.80;3.33;;;12.80;97.80;;;;;;5031332;28;20431;-65
2022/10/07 01:39:51;;;;;;;6.10;2.50;;;12.80;97.90;;;;;;5028456;28;20418;-64
2022/10/07 01:42:18;;;;;;;7.47;3.17;;;12.80;97.40;;;;;;5028468;28;20053;-65
2022/10/07 01:44:47;;;;;;;8.77;2.78;;;12.70;97.30;;;;;;5031135;28;20064;-64
2022/10/07 01:47:12;;;;;;;7.95;3.08;;;12.70;96.80;;;;;;5027316;28;20060;-64
2022/10/07 01:49:38;;;;;;;8.18;2.97;;;12.80;97.10;;;;;;5027313;28;20049;-65
2022/10/07 01:52:27;;;;;;;8.80;3.80;;;12.80;97.70;;;;;;5035291;28;20033;-64
2022/10/07 01:55:16;;;;;;;7.03;3.33;;;12.80;97.50;;;;;;5031437;28;20029;-65
2022/10/07 01:57:52;;;;;;;12.07;4.32;;;12.90;98.00;;;;;;5035056;28;20041;-64
2022/10/07 02:00:18;;;;;;;12.30;4.72;;;13.00;98.00;;;;;;5023821;28;20068;-65
2022/10/07 02:02:58;;;;;;;10.95;4.47;;;13.00;98.00;;;;;;5035325;28;20029;-65
2022/10/07 02:05:30;;;;;;;9.93;5.47;;;13.00;97.80;;;;;;5024444;28;20087;-65
2022/10/07 02:08:14;;;;;;;10.35;5.65;;;13.00;97.70;;;;;;5029199;28;20018;-65
2022/10/07 02:10:51;;;;;;;13.67;6.57;;;13.00;97.50;;;;;;5033246;28;20424;-65
2022/10/07 02:13:40;;;;;;;11.68;5.72;;;13.00;97.50;;;;;;5033369;28;20021;-66
2022/10/07 02:16:17;;;;;;;14.88;6.60;;;13.00;97.50;;;;;;5032674;28;20116;-65
2022/10/07 02:18:48;;;;;;;11.25;6.35;;;12.90;97.40;;;;;;5034048;28;20406;-65
2022/10/07 02:21:17;;;;;;;13.35;6.32;;;12.90;97.20;;;;;;5037014;28;20108;-65
2022/10/07 02:23:45;;;;;;;12.75;6.30;;;12.90;97.20;;;;;;5030864;28;20128;-64
2022/10/07 02:26:13;;;;;;;13.48;6.80;;;12.80;97.20;;;;;;5033307;28;20025;-64
2022/10/07 02:28:41;;;;;;;14.02;7.05;;;12.70;96.90;;;;;;5036050;28;20083;-64
2022/10/07 02:31:09;;;;;;;12.60;6.50;;;12.50;96.50;;;;;;5055375;28;20025;-65
2022/10/07 02:33:40;;;;;;;15.80;6.30;;;12.40;95.70;;;;;;5043130;28;20029;-65
2022/10/07 02:36:15;;;;;;;10.15;5.50;;;12.10;95.20;;;;;;5028713;28;20029;-65
2022/10/07 02:38:42;;;;;;;14.98;7.47;;;11.90;94.20;;;;;;5031879;28;20112;-64
2022/10/07 02:41:32;;;;;;;16.27;7.53;;;11.70;93.10;;;;;;5037290;28;20325;-64
2022/10/07 02:44:02;;;;;;;16.25;7.43;;;11.70;91.30;;;;;;5031654;28;20033;-64
2022/10/07 02:46:38;;;;;;;13.75;7.40;;;11.70;91.40;;;;;;5034923;28;20028;-65
2022/10/07 02:49:09;;;;;;;14.82;8.48;;;11.70;90.70;;;;;;5033915;28;20044;-64
2022/10/07 02:51:39;;;;;;;17.33;8.95;;;11.80;91.20;;;;;;5028662;28;20433;-65
2022/10/07 02:54:05;;;;;;;18.00;9.00;;;11.90;91.90;;;;;;5027862;28;20418;-65
2022/10/07 02:56:35;;;;;;;12.57;7.10;;;11.70;92.00;;;;;;5032834;28;20103;-65
2022/10/07 02:59:03;;;;;;;15.45;9.30;;;11.50;90.90;;;;;;5028429;28;20033;-65
2022/10/07 03:01:33;;;;;;;14.70;8.45;;;11.30;91.00;;;;;;5030271;28;20026;-65
2022/10/07 03:03:59;;;;;;;17.45;8.77;;;11.20;90.20;;;;;;5030692;28;20041;-65
2022/10/07 03:06:28;;;;;;;17.20;9.13;;;11.10;88.50;;;;;;5029710;28;20124;-64
2022/10/07 03:08:59;;;;;;;17.50;9.27;;;11.20;88.10;;;;;;5024348;28;20033;-65
2022/10/07 03:11:25;;;;;;;19.60;9.38;;;11.20;88.20;;;;;;5026799;28;20042;-65
2022/10/07 03:13:50;;;;;;;14.77;8.23;;;11.00;88.10;;;;;;5021318;28;20042;-64
2022/10/07 03:16:16;;;;;;;12.55;7.80;;;10.90;87.10;;;;;;5028453;28;20018;-64
2022/10/07 03:18:45;;;;;;;11.77;7.60;;;10.80;87.40;;;;;;5032324;28;20072;-65
2022/10/07 03:21:11;;;;;;;11.40;6.07;;;10.70;86.80;;;;;;5028891;28;20025;-64
2022/10/07 03:23:37;;;;;;;14.02;7.18;;;10.50;86.00;;;;;;5030425;28;20029;-63
2022/10/07 03:26:06;;;;;;;13.05;8.18;;;10.50;85.40;;;;;;5031419;28;20029;-64
2022/10/07 03:28:36;;;;;;;20.27;8.25;;;10.50;86.20;;;;;;5032794;28;20022;-64
2022/10/07 03:31:05;;;;;;;15.85;9.23;;;10.30;85.50;;;;;;5031848;28;20364;-65
2022/10/07 03:33:31;;;;;;;13.70;8.27;;;10.20;84.80;;;;;;5015598;28;22045;-64
2022/10/07 03:35:56;;;;;;;14.35;7.90;;;10.10;84.80;;;;;;5023388;28;20120;-65
2022/10/07 03:38:22;;;;;;;16.00;8.82;;;10.00;83.70;;;;;;5026131;28;20045;-64
2022/10/07 03:40:48;;;;;;;15.55;8.77;;;10.00;83.20;;;;;;5026346;28;20419;-65
2022/10/07 03:43:14;;;;;;;16.60;9.43;;;9.90;82.20;;;;;;5035498;28;20031;-64
2022/10/07 03:45:44;;;;;;;14.02;8.40;;;9.90;82.50;;;;;;5030795;28;20037;-65
2022/10/07 03:48:10;;;;;;;16.33;9.73;;;9.80;81.60;;;;;;5033033;28;20471;-65
2022/10/07 03:50:36;;;;;;;12.60;7.07;;;9.70;81.30;;;;;;5032519;28;20029;-66
2022/10/07 03:53:03;;;;;;;14.85;7.40;;;9.70;80.10;;;;;;5034091;28;20025;-65
2022/10/07 03:55:29;;;;;;;12.23;7.65;;;9.80;79.80;;;;;;5029332;28;20022;-65
2022/10/07 03:57:56;;;;;;;18.17;9.98;;;9.90;79.80;;;;;;5032766;28;20048;-66
2022/10/07 04:00:27;;;;;;;14.40;8.52;;;9.90;80.60;;;;;;5032726;28;20036;-64
2022/10/07 04:02:52;;;;;;;13.18;8.80;;;9.80;81.30;;;;;;5034236;28;20021;-64
2022/10/07 04:05:20;;;;;;;19.02;10.63;;;9.70;79.50;;;;;;5030721;28;20044;-63
2022/10/07 04:07:47;;;;;;;19.85;11.15;;;9.70;80.10;;;;;;5032294;28;20041;-64
2022/10/07 04:10:15;;;;;;;16.33;9.40;;;9.60;79.80;;;;;;5027759;28;20037;-65
2022/10/07 04:12:43;;;;;;;17.35;9.27;;;9.60;78.80;;;;;;5029071;28;20104;-64
2022/10/07 04:15:12;;;;;;;20.48;11.98;;;9.60;78.60;;;;;;5033823;28;20028;-65
2022/10/07 04:17:39;;;;;;;17.23;9.50;;;9.50;79.40;;;;;;5032930;28;20034;-64
2022/10/07 04:20:06;;;;;;;13.07;9.13;;;9.40;79.10;;;;;;5030459;28;20030;-65
2022/10/07 04:22:32;;;;;;;16.70;10.70;;;9.40;77.90;;;;;;5040846;28;20104;-64
2022/10/07 04:27:41;;;;;;;24.50;13.82;;;9.40;78.10;;;;;;5042438;28;20033;-65
2022/10/07 04:30:08;;;;;;;16.95;10.10;;;9.40;77.70;;;;;;5035486;28;20033;-65
2022/10/07 04:32:34;;;;;;;22.35;14.35;;;9.40;77.20;;;;;;5033846;28;20028;-65
2022/10/07 04:35:02;;;;;;;18.20;11.50;;;9.40;77.70;;;;;;5034386;28;20116;-66
2022/10/07 04:37:28;;;;;;;21.20;13.00;;;9.30;77.90;;;;;;5034484;28;20068;-64
2022/10/07 04:39:54;;;;;;;20.77;13.98;;;9.30;77.00;;;;;;5034178;28;20030;-65
2022/10/07 04:45:05;;;;;;;20.98;12.80;;;9.40;75.90;;;;;;5033858;28;20116;-65
2022/10/07 04:47:34;;;;;;;22.13;13.30;;;9.30;77.40;;;;;;5034513;28;20030;-65
2022/10/07 04:50:00;;;;;;;18.15;11.68;;;9.10;78.30;;;;;;5032956;28;20420;-65
2022/10/07 04:52:26;;;;;;;21.73;12.38;;;9.00;76.70;;;;;;5033219;28;20033;-64
2022/10/07 04:54:53;;;;;;;29.38;16.60;;;9.00;76.20;;;;;;5033845;28;20032;-64
2022/10/07 04:57:18;;;;;;;17.15;11.77;;;9.00;76.40;;;;;;5034108;28;20485;-65
2022/10/07 04:59:44;;;;;;;18.25;11.60;;;9.00;75.70;;;;;;5035515;28;20053;-65
2022/10/07 05:02:10;;;;;;;17.98;11.18;;;9.00;75.20;;;;;;5026256;28;20022;-65
2022/10/07 05:04:36;;;;;;;25.35;13.93;;;9.00;75.70;;;;;;5032854;28;20391;-65
2022/10/07 05:07:02;;;;;;;22.92;14.55;;;9.00;75.10;;;;;;5033234;28;20104;-65
2022/10/07 05:09:28;;;;;;;21.50;13.82;;;9.00;74.40;;;;;;5034090;28;20036;-64
2022/10/07 05:11:56;;;;;;;21.17;12.98;;;9.00;75.50;;;;;;5035234;28;20022;-65
2022/10/07 05:14:22;;;;;;;16.63;11.13;;;8.90;76.90;;;;;;5033629;28;20489;-65
2022/10/07 05:16:48;;;;;;;26.52;16.17;;;8.90;75.40;;;;;;5032366;28;20033;-65
2022/10/07 05:19:14;;;;;;;22.15;13.05;;;8.90;74.90;;;;;;5035106;28;20029;-65
2022/10/07 05:21:42;;;;;;;21.60;14.63;;;8.80;75.60;;;;;;5031494;28;20033;-65
2022/10/07 05:24:08;;;;;;;21.33;13.88;;;8.80;75.00;;;;;;5025507;28;20029;-65
2022/10/07 05:26:34;;;;;;;21.08;12.15;;;8.80;76.10;;;;;;5032742;28;20039;-65
2022/10/07 05:28:59;;;;;;;19.45;13.48;;;8.70;75.20;;;;;;5033518;28;20149;-65
2022/10/07 05:31:26;;;;;;;30.95;16.90;;;8.80;73.70;;;;;;5031404;28;20014;-66
2022/10/07 05:33:52;;;;;;;22.63;13.77;;;8.80;74.50;;;;;;5036978;28;20013;-65
2022/10/07 05:36:18;;;;;;;17.90;12.43;;;8.80;74.90;;;;;;5037486;28;20049;-65
2022/10/07 05:38:44;;;;;;;23.38;15.25;;;8.90;73.80;;;;;;5035238;28;20120;-65
2022/10/07 05:41:11;;;;;;;30.25;18.63;;;9.00;72.90;;;;;;5035182;28;20140;-65
2022/10/07 05:43:41;;;;;;;21.40;13.23;;;9.10;73.80;;;;;;5038706;28;20064;-65
2022/10/07 05:46:09;;;;;;;16.48;11.80;;;9.00;73.60;;;;;;5034121;28;20033;-65
2022/10/07 05:48:35;;;;;;;20.58;13.68;;;9.10;73.10;;;;;;5037046;28;20021;-66
2022/10/07 05:51:01;;;;;;;31.13;18.35;;;9.20;73.20;;;;;;5031276;28;20022;-66
2022/10/07 05:53:28;;;;;;;19.05;11.82;;;9.20;73.60;;;;;;5037318;28;20029;-65
2022/10/07 05:55:54;;;;;;;26.25;15.50;;;9.20;74.50;;;;;;5035114;28;20029;-65
2022/10/07 05:58:21;;;;;;;24.40;15.43;;;9.20;73.50;;;;;;5036356;28;20032;-65
2022/10/07 06:00:57;;;;;;;26.38;16.60;;;9.30;72.90;;;;;;5028101;28;20025;-65
2022/10/07 06:03:24;;;;;;;27.58;16.98;;;9.20;74.20;;;;;;5036112;28;20029;-65
2022/10/07 06:05:51;;;;;;;23.73;13.18;;;9.30;73.10;;;;;;5036465;28;20512;-65
2022/10/07 06:08:18;;;;;;;23.23;12.77;;;9.20;74.50;;;;;;5034444;28;20087;-65
2022/10/07 06:13:29;;;;;;;23.45;13.45;;;9.20;73.30;;;;;;5020755;28;20175;-65
2022/10/07 06:16:07;;;;;;;21.30;13.38;;;9.30;73.30;;;;;;5012098;28;20033;-64
2022/10/07 06:18:38;;;;;;;29.25;16.35;;;9.40;73.10;;;;;;5013563;28;20075;-64
2022/10/07 06:21:04;;;;;;;22.02;13.57;;;9.60;72.50;;;;;;5013297;28;20060;-64
2022/10/07 06:23:30;;;;;;;21.15;12.57;;;9.70;73.20;;;;;;5014296;28;20030;-64
2022/10/07 06:25:58;;;;;;;20.63;12.18;;;9.80;73.30;;;;;;5011776;28;20037;-65
2022/10/07 06:28:25;;;;;;;19.60;12.82;;;9.90;72.90;;;;;;5020422;28;20025;-66
2022/10/07 06:30:51;;;;;;;22.02;14.82;;;10.20;71.70;;;;;;5013091;28;20975;-65
2022/10/07 06:33:18;;;;;;;24.73;13.88;;;10.60;72.20;;;;;;5012384;28;20075;-64
2022/10/07 06:35:44;;;;;;;26.90;15.77;;;10.80;73.10;;;;;;5018716;28;20442;-65
2022/10/07 06:38:13;;;;;;;23.55;14.45;;;10.90;74.20;;;;;;5011521;28;20053;-64
2022/10/07 06:40:42;;;;;;;22.65;13.98;;;11.10;76.20;;;;;;5013791;28;21694;-66
2022/10/07 06:43:07;;;;;;;25.05;15.65;;;11.20;78.30;;;;;;5019305;28;20098;-65
2022/10/07 06:45:33;;;;;;;22.05;14.05;;;11.30;81.50;;;;;;5013728;28;20121;-65
2022/10/07 06:47:59;;;;;;;25.85;14.63;;;11.40;84.10;;;;;;5012840;28;20163;-65
2022/10/07 06:50:25;;;;;;;22.42;15.00;;;11.50;85.70;;;;;;5012823;28;20029;-65
2022/10/07 06:52:51;;;;;;;21.92;14.73;;;11.70;87.60;;;;;;5029485;28;20045;-65
2022/10/07 06:55:16;;;;;;;23.20;14.93;;;11.80;89.00;;;;;;5035939;28;20087;-65
2022/10/07 06:57:44;;;;;;;25.23;15.13;;;11.90;90.00;;;;;;5037278;28;20060;-66
2022/10/07 07:00:13;;;;;;;24.38;15.27;;;12.00;90.50;;;;;;5037333;28;20033;-65
2022/10/07 07:02:38;;;;;;;23.77;14.57;;;12.00;91.40;;;;;;5036110;28;20036;-65
2022/10/07 07:05:07;;;;;;;20.48;13.75;;;12.10;92.10;;;;;;5037210;28;20092;-65
2022/10/07 07:07:32;;;;;;;22.88;13.75;;;12.20;92.10;;;;;;5017307;28;20026;-65
2022/10/07 07:09:58;;;;;;;21.95;13.38;;;12.30;93.00;;;;;;5015367;28;20091;-65
2022/10/07 07:12:25;;;;;;;20.33;13.45;;;12.40;93.00;;;;;;5012849;28;20029;-66
2022/10/07 07:14:51;;;;;;;20.38;13.73;;;12.40;94.40;;;;;;5013464;28;20832;-65
2022/10/07 07:17:17;;;;;;;20.58;13.82;;;12.50;94.70;;;;;;5013760;28;20029;-65
2022/10/07 07:19:43;;;;;;;24.05;13.40;;;12.60;95.10;;;;;;5020442;28;20100;-65
2022/10/07 07:22:09;;;;;;;20.42;13.02;;;12.60;95.20;;;;;;5013857;28;20029;-65
2022/10/07 07:24:35;;;;;;;21.13;12.73;;;12.60;95.10;;;;;;5013537;28;20105;-65
2022/10/07 07:27:01;;;;;;;20.13;12.57;;;12.70;95.20;;;;;;5024189;28;20299;-66
2022/10/07 07:29:27;;;;;;;21.05;14.27;;;12.80;95.70;;;;;;5011499;28;20720;-65
2022/10/07 07:31:52;;;;;;;22.05;14.18;;;12.90;96.70;;;;;;5011060;28;20104;-65
2022/10/07 07:34:18;;;;;;;21.98;13.25;;;12.90;97.20;;;;;;5017397;28;20026;-66
2022/10/07 07:36:47;;;;;;;18.20;12.77;;;13.00;97.00;;;;;;5012635;28;20243;-65
2022/10/07 07:39:16;;;;;;;21.33;13.40;;;13.00;97.60;;;;;;5015356;28;20563;-65
2022/10/07 07:41:45;;;;;;;19.58;12.30;;;12.90;97.60;;;;;;5011471;28;20021;-66
2022/10/07 07:44:14;;;;;;;18.90;12.45;;;13.00;97.60;;;;;;5015630;28;20407;-66
2022/10/07 07:46:55;;;;;;;20.27;12.32;;;13.20;97.80;;;;;;5010956;28;20920;-65
2022/10/07 07:49:22;;;;;;;18.30;13.32;;;13.30;98.00;;;;;;5012842;28;20037;-65
2022/10/07 07:51:49;;;;;;;19.02;12.80;;;13.30;98.00;;;;;;5021452;28;20037;-65
2022/10/07 07:54:15;;;;;;;18.15;13.63;;;13.30;98.00;;;;;;5023793;28;20029;-66
2022/10/07 07:56:41;;;;;;;17.17;12.07;;;13.30;98.00;;;;;;5028489;28;20040;-65
2022/10/07 07:59:07;;;;;;;20.17;13.18;;;13.30;98.00;;;;;;5013530;28;20033;-65
2022/10/07 08:01:34;;;;;;;15.98;11.23;;;13.40;98.00;;;;;;5014253;28;20060;-65
2022/10/07 08:04:00;;;;;;;16.58;12.05;;;13.60;98.00;;;;;;5034605;28;20041;-65
2022/10/07 08:06:27;;;;;;;16.83;12.05;;;13.70;98.00;;;;;;5024790;28;20034;-65
2022/10/07 08:08:58;;;;;;;18.33;13.07;;;13.80;98.00;;;;;;5009923;28;20112;-66
2022/10/07 08:11:24;;;;;;;15.23;10.90;;;13.80;98.00;;;;;;5014885;28;20029;-65
2022/10/07 08:13:50;;;;;;;14.52;10.82;;;13.90;98.00;;;;;;5011148;28;21361;-65
2022/10/07 08:16:18;;;;;;;18.35;12.30;;;14.20;98.00;;;;;;5011307;28;20125;-65
2022/10/07 08:18:47;;;;;;;15.88;11.52;;;14.50;98.00;;;;;;5015122;28;20068;-67
2022/10/07 08:21:14;;;;;;;13.60;10.85;;;14.70;98.00;;;;;;5010822;28;20445;-65
2022/10/07 08:23:40;;;;;;;13.65;10.25;;;14.80;98.00;;;;;;5009915;28;20040;-65
2022/10/07 08:26:07;;;;;;;14.35;10.15;;;15.10;98.00;;;;;;5019221;28;20029;-66
2022/10/07 08:28:33;;;;;;;12.35;9.48;;;15.40;98.00;;;;;;5018128;28;20026;-66
2022/10/07 08:31:04;;;;;;;12.43;9.25;;;15.50;98.00;;;;;;5009850;28;20307;-64
2022/10/07 08:33:35;;;;;;;12.80;9.27;;;15.70;97.60;;;;;;5010116;28;20799;-65
2022/10/07 08:36:03;;;;;;;13.85;9.82;;;16.00;97.10;;;;;;5015677;28;20040;-64
2022/10/07 08:38:34;;;;;;;13.35;10.30;;;16.30;96.50;;;;;;5014533;28;20029;-65
2022/10/07 08:41:15;;;;;;;15.88;11.27;;;16.30;96.10;;;;;;5009950;28;20040;-66
2022/10/07 08:43:47;;;;;;;15.00;10.95;;;16.30;96.80;;;;;;5011532;28;20045;-65
2022/10/07 08:46:31;;;;;;;15.02;11.10;;;16.80;95.50;;;;;;5013430;28;20033;-65
2022/10/07 08:49:11;;;;;;;13.73;10.77;;;16.80;94.70;;;;;;5010917;28;20033;-65
2022/10/07 08:51:43;;;;;;;17.00;12.15;;;16.60;95.10;;;;;;5012924;28;20298;-65
2022/10/07 08:54:13;;;;;;;17.13;12.23;;;16.40;94.90;;;;;;5012801;28;20107;-64
2022/10/07 08:56:40;;;;;;;17.33;12.95;;;16.20;96.20;;;;;;5028961;28;20148;-65
2022/10/07 08:59:20;;;;;;;16.20;12.00;;;16.10;96.40;;;;;;5011838;28;20429;-65
2022/10/07 09:02:13;;;;;;;14.98;11.10;;;16.10;96.60;;;;;;5011861;28;20044;-65
2022/10/07 09:04:54;;;;;;;15.98;10.88;;;16.40;96.40;;;;;;5012399;28;20042;-65
2022/10/07 09:07:46;;;;;;;15.48;11.82;;;16.80;95.60;;;;;;5011557;28;20037;-64
2022/10/07 09:10:27;;;;;;;15.63;11.23;;;17.10;94.10;;;;;;5014416;28;20029;-64
2022/10/07 09:13:03;;;;;;;15.20;11.55;;;17.30;93.90;;;;;;5013654;28;20139;-64
2022/10/07 09:15:47;;;;;;;18.60;14.18;;;17.30;94.40;;;;;;5017628;28;20100;-64
2022/10/07 09:18:31;;;;;;;19.00;14.43;;;16.80;94.70;;;;;;5016303;28;20033;-64
2022/10/07 09:20:57;;;;;;;17.00;13.18;;;16.20;95.60;;;;;;5014190;28;20033;-66
2022/10/07 09:23:34;;;;;;;19.35;14.77;;;15.70;97.20;;;;;;5014624;28;20036;-65
2022/10/07 09:26:00;;;;;;;19.25;13.38;;;15.70;97.20;;;;;;5022222;28;20118;-65
2022/10/07 09:28:31;;;;;;;19.02;13.95;;;15.60;97.70;;;;;;5015011;28;20029;-65
2022/10/07 09:31:01;;;;;;;18.05;13.07;;;15.50;97.50;;;;;;5014020;28;20027;-65
2022/10/07 09:33:28;;;;;;;17.63;12.32;;;15.50;97.70;;;;;;5020005;28;20018;-65
2022/10/07 09:35:57;;;;;;;19.13;12.50;;;15.60;97.50;;;;;;5014091;28;20187;-65
2022/10/07 09:38:38;;;;;;;17.75;10.95;;;15.90;97.60;;;;;;5015389;28;20190;-65
2022/10/07 09:41:16;;;;;;;16.52;12.10;;;16.30;96.90;;;;;;5018321;28;20497;-65
2022/10/07 09:44:05;;;;;;;18.42;12.80;;;16.50;96.30;;;;;;5013494;28;20163;-66
2022/10/07 09:46:39;;;;;;;17.48;10.95;;;16.50;95.60;;;;;;5015359;28;20040;-65
2022/10/07 09:49:06;;;;;;;15.68;10.57;;;16.60;96.20;;;;;;5012886;28;20115;-65
2022/10/07 09:51:34;;;;;;;12.65;9.45;;;16.80;95.50;;;;;;5037816;28;20028;-65
2022/10/07 09:54:17;;;;;;;18.90;12.43;;;17.10;94.90;;;;;;5037491;28;20065;-64
2022/10/07 09:56:46;;;;;;;14.50;10.13;;;17.10;93.50;;;;;;5028340;28;20048;-64
2022/10/07 09:59:24;;;;;;;14.32;10.82;;;17.00;94.10;;;;;;5015990;28;20048;-65
2022/10/07 10:02:01;;;;;;;15.95;11.10;;;16.70;94.60;;;;;;5013344;28;22132;-65
2022/10/07 10:04:32;;;;;;;16.27;11.32;;;16.60;95.10;;;;;;5021430;28;20039;-64
2022/10/07 10:07:05;;;;;;;15.80;10.52;;;16.40;95.70;;;;;;5015607;28;20028;-65
2022/10/07 10:09:33;;;;;;;13.10;9.30;;;16.30;96.00;;;;;;5016092;28;20307;-65
2022/10/07 10:12:13;;;;;;;13.30;9.57;;;16.30;96.00;;;;;;5015934;28;20100;-65
2022/10/07 10:14:52;;;;;;;12.18;8.85;;;16.20;96.30;;;;;;5012824;28;20029;-65
2022/10/07 10:17:35;;;;;;;12.95;9.48;;;16.30;96.70;;;;;;5014469;28;20030;-65
2022/10/07 10:20:29;;;;;;;12.37;8.97;;;16.30;95.40;;;;;;5016839;28;20022;-65
2022/10/07 10:22:55;;;;;;;13.35;8.20;;;16.60;95.90;;;;;;5014231;28;20522;-65
2022/10/07 10:29:16;;;;;;;12.88;8.68;;;17.20;93.50;;;;;;5007776;28;20453;-65
2022/10/07 10:32:08;;;;;;;12.43;7.47;;;17.20;94.40;;;;;;5014562;28;20434;-66
2022/10/07 10:34:58;;;;;;;12.05;8.18;;;17.30;94.40;;;;;;5011752;28;20041;-65
2022/10/07 10:37:33;;;;;;;12.13;8.55;;;17.20;93.60;;;;;;5015545;28;20042;-65
2022/10/07 10:40:33;;;;;;;11.27;7.95;;;17.00;94.10;;;;;;5016020;28;20029;-65
2022/10/07 10:43:27;;;;;;;12.07;9.38;;;17.00;94.90;;;;;;5013695;28;20088;-65
2022/10/07 10:45:56;;;;;;;11.40;7.97;;;17.10;94.00;;;;;;5012329;28;20025;-65
2022/10/07 10:48:27;;;;;;;15.15;9.10;;;17.10;94.20;;;;;;5020986;28;20026;-65
2022/10/07 10:51:22;;;;;;;10.30;7.10;;;17.40;94.10;;;;;;5015439;28;20026;-65
2022/10/07 10:53:57;;;;;;;11.18;7.88;;;17.80;93.90;;;;;;5014427;28;20026;-65
2022/10/07 10:56:48;;;;;;;9.57;7.00;;;18.30;92.10;;;;;;5034451;28;20049;-65
2022/10/07 10:59:29;;;;;;;11.18;7.13;;;18.20;91.90;;;;;;5014196;28;20034;-66
2022/10/07 11:02:22;;;;;;;9.98;6.95;;;18.00;92.10;;;;;;5011013;28;20384;-65
2022/10/07 11:05:07;;;;;;;10.95;6.93;;;17.80;92.30;;;;;;5024831;28;20520;-65
2022/10/07 11:07:42;;;;;;;10.60;6.88;;;17.90;92.20;;;;;;5012535;28;20385;-65
2022/10/07 11:10:35;;;;;;;10.18;7.40;;;17.90;92.70;;;;;;5011518;28;20452;-65
2022/10/07 11:13:39;;;;;;;10.32;6.50;;;17.80;91.80;;;;;;5010945;28;20026;-65
2022/10/07 11:16:17;;;;;;;12.57;6.90;;;17.90;92.40;;;;;;5015374;28;20075;-65
2022/10/07 11:18:59;;;;;;;9.75;5.95;;;17.90;93.00;;;;;;5011585;28;20136;-65
2022/10/07 11:21:31;;;;;;;10.85;7.65;;;18.20;91.90;;;;;;5011481;28;20030;-65
2022/10/07 11:24:04;;;;;;;11.43;6.15;;;18.30;90.90;;;;;;5014896;28;20033;-65
2022/10/07 11:26:36;;;;;;;10.10;7.50;;;18.50;89.90;;;;;;5017782;28;20087;-66
2022/10/07 11:29:25;;;;;;;8.90;6.10;;;18.50;89.80;;;;;;5012342;28;20026;-65
2022/10/07 11:32:17;;;;;;;10.68;7.20;;;18.40;89.80;;;;;;5008807;28;20057;-65
2022/10/07 11:34:50;;;;;;;11.73;6.95;;;18.10;90.50;;;;;;4992422;28;20332;-65
2022/10/07 11:37:24;;;;;;;11.38;7.05;;;18.10;90.80;;;;;;5011761;28;20081;-65
2022/10/07 11:39:52;;;;;;;;;;;18.10;91.20;;;;;;5017435;28;20083;-65
2022/10/07 11:42:21;;;;;;;9.10;6.22;;;18.00;91.70;;;;;;5012214;28;19960;-65
2022/10/07 11:45:32;;;;;;;10.23;7.55;;;17.90;92.10;;;;;;5012631;28;20447;-65
2022/10/07 11:48:09;;;;;;;10.43;6.10;;;18.10;92.00;;;;;;5006649;28;20450;-64
2022/10/07 11:50:51;;;;;;;10.65;6.53;;;18.40;91.50;;;;;;5003658;28;20038;-65
2022/10/07 11:53:24;;;;;;;9.40;6.18;;;18.50;90.30;;;;;;5015236;28;20453;-65
2022/10/07 11:56:04;;;;;;;8.63;6.53;;;18.60;90.40;;;;;;5027176;28;20076;-65
2022/10/07 11:58:34;;;;;;;10.32;6.90;;;18.30;90.90;;;;;;5017801;28;20272;-64
2022/10/07 12:01:25;;;;;;;11.13;6.95;;;18.20;91.50;;;;;;5013388;28;20029;-65
2022/10/07 12:04:12;;;;;;;10.30;7.20;;;18.40;90.40;;;;;;5023165;28;20056;-64
2022/10/07 12:06:37;;;;;;;9.02;6.28;;;18.50;90.60;;;;;;5012068;28;20061;-64
2022/10/07 12:09:40;;;;;;;11.43;6.57;;;18.50;90.30;;;;;;5011671;28;20108;-64
2022/10/07 12:12:11;;;;;;;10.15;5.80;;;18.40;90.70;;;;;;5015107;28;20120;-63
2022/10/07 12:14:44;;;;;;;8.90;6.32;;;18.30;90.40;;;;;;5012083;28;20033;-64
2022/10/07 12:17:22;;;;;;;9.40;5.97;;;18.50;90.40;;;;;;5010931;28;20950;-65
2022/10/07 12:20:26;;;;;;;10.68;6.80;;;18.70;90.40;;;;;;5014044;28;20030;-66
2022/10/07 12:23:26;;;;;;;9.67;5.40;;;19.00;88.70;;;;;;5011160;28;20116;-65
2022/10/07 12:25:59;;;;;;;9.77;6.38;;;19.40;88.40;;;;;;5029666;28;20075;-65
2022/10/07 12:28:44;;;;;;;9.02;5.88;;;19.80;86.50;;;;;;5013349;28;21779;-65
2022/10/07 12:31:22;;;;;;;7.65;4.93;;;19.90;87.20;;;;;;5012527;28;21658;-64
2022/10/07 12:34:08;;;;;;;7.10;4.70;;;19.90;85.90;;;;;;5014066;28;20037;-65
2022/10/07 12:36:34;;;;;;;7.80;5.00;;;20.00;85.40;;;;;;5011335;28;21664;-65
2022/10/07 12:39:31;;;;;;;8.00;4.88;;;19.80;86.60;;;;;;5011243;28;20053;-64
2022/10/07 12:41:58;;;;;;;7.80;5.63;;;19.80;86.90;;;;;;5010752;28;20095;-65
2022/10/07 12:44:44;;;;;;;8.60;4.97;;;19.70;87.50;;;;;;5016039;28;20322;-65
2022/10/07 12:47:17;;;;;;;11.35;5.47;;;20.00;87.10;;;;;;5015043;28;20408;-64
2022/10/07 12:49:48;;;;;;;7.65;5.30;;;20.50;85.20;;;;;;5017411;28;20112;-65
2022/10/07 12:52:46;;;;;;;8.45;5.25;;;21.10;83.90;;;;;;5017303;28;20018;-65
2022/10/07 12:55:40;;;;;;;7.53;5.03;;;20.90;83.10;;;;;;5011774;28;20045;-65
2022/10/07 13:01:07;;;;;;;;;;;19.60;86.20;;;;;;5015094;28;20115;-65
2022/10/07 13:03:50;;;;;;;7.72;4.72;;;19.80;87.50;;;;;;5017263;28;20378;-65
2022/10/07 13:06:41;;;;;;;8.03;4.77;;;20.40;86.80;;;;;;5018637;28;20468;-65
2022/10/07 13:09:28;;;;;;;7.93;4.82;;;20.40;86.30;;;;;;5009236;28;20291;-65
2022/10/07 13:12:02;;;;;;;10.13;5.68;;;20.30;85.80;;;;;;5014395;28;20030;-64
2022/10/07 13:14:53;;;;;;;9.23;5.63;;;20.40;85.60;;;;;;5018776;28;20030;-65
2022/10/07 13:17:34;;;;;;;7.13;4.60;;;20.40;84.70;;;;;;5015840;28;20057;-65
2022/10/07 13:20:49;;;;;;;6.43;4.70;;;20.60;85.90;;;;;;5016506;28;20053;-65